Time;durP1;ratioP1;P1;durP2;ratioP2;P2;SDS_P1;SDS_P2;PMS_P1;PMS_P2;Temp;Humidity;BMP_temperature;BMP_pressure;BME280_temperature;BME280_humidity;BME280_pressure;Samples;Min_cycle;Max_cycle;Signal;HPM_P1;HPM_P2
2021/12/12 07:02:09;;;;;;;22.92;3.65;;;11.60;99.90;;;;;;5182928;23;20046;-81
2021/12/12 07:04:40;;;;;;;22.48;3.00;;;11.70;99.90;;;;;;4957090;28;20071;-81
2021/12/12 07:07:11;;;;;;;26.33;4.53;;;11.70;99.90;;;;;;4960088;28;20114;-81
2021/12/12 07:09:40;;;;;;;31.02;3.28;;;11.70;99.90;;;;;;4960017;28;20043;-81
2021/12/12 07:12:10;;;;;;;30.17;3.72;;;11.70;99.90;;;;;;4960103;28;20074;-80
2021/12/12 07:14:39;;;;;;;30.90;3.97;;;11.70;99.90;;;;;;4970916;28;20050;-81
2021/12/12 07:17:08;;;;;;;29.77;4.25;;;11.70;99.90;;;;;;4955352;28;20598;-80
2021/12/12 07:19:37;;;;;;;;;;;11.70;99.90;;;;;;4959794;28;20051;-81
2021/12/12 07:22:04;;;;;;;29.65;4.07;;;11.70;99.90;;;;;;4960074;28;19923;-81
2021/12/12 07:24:31;;;;;;;23.02;3.65;;;11.70;99.90;;;;;;4960076;28;20508;-81
2021/12/12 07:26:59;;;;;;;36.83;4.65;;;11.70;99.90;;;;;;4960011;28;20168;-82
2021/12/12 07:29:27;;;;;;;30.05;3.60;;;11.70;99.90;;;;;;4970306;28;20097;-82
2021/12/12 07:31:54;;;;;;;25.25;3.85;;;11.70;99.90;;;;;;4967275;28;20047;-82
2021/12/12 07:34:21;;;;;;;32.13;3.80;;;11.70;99.90;;;;;;4958904;28;20051;-81
2021/12/12 07:36:52;;;;;;;31.65;4.43;;;11.70;99.90;;;;;;4958956;28;20093;-82
2021/12/12 07:39:22;;;;;;;36.28;4.28;;;11.70;99.90;;;;;;4960842;28;20051;-81
2021/12/12 07:41:50;;;;;;;27.52;4.53;;;11.70;99.90;;;;;;4969921;28;20050;-81
2021/12/12 07:44:21;;;;;;;36.45;5.10;;;11.70;99.90;;;;;;4968835;28;20088;-81
2021/12/12 07:46:49;;;;;;;28.15;3.88;;;11.70;99.90;;;;;;4956109;28;20055;-81
2021/12/12 07:49:22;;;;;;;29.75;4.53;;;11.70;99.90;;;;;;4957861;28;20093;-81
2021/12/12 07:51:50;;;;;;;32.55;4.53;;;11.70;99.90;;;;;;4958667;28;20480;-81
2021/12/12 07:54:18;;;;;;;27.48;4.70;;;11.70;99.90;;;;;;4957996;28;20074;-80
2021/12/12 07:56:46;;;;;;;18.55;3.30;;;11.70;99.90;;;;;;4956674;28;20054;-80
2021/12/12 07:59:16;;;;;;;14.88;2.38;;;11.60;99.90;;;;;;4952786;28;20167;-81
2021/12/12 08:01:47;;;;;;;18.95;3.45;;;11.60;99.90;;;;;;4956308;28;20047;-80
2021/12/12 08:04:16;;;;;;;17.85;2.92;;;11.60;99.90;;;;;;4957695;28;20049;-80
2021/12/12 08:06:43;;;;;;;17.55;2.88;;;11.60;99.90;;;;;;4964080;28;20073;-80
2021/12/12 08:09:11;;;;;;;15.23;2.50;;;11.60;99.90;;;;;;4964139;28;20054;-81
2021/12/12 08:11:39;;;;;;;25.55;2.70;;;11.60;99.90;;;;;;4966291;28;20055;-80
2021/12/12 08:14:12;;;;;;;17.92;2.85;;;11.60;99.90;;;;;;4954328;28;20047;-79
2021/12/12 08:16:39;;;;;;;20.90;2.20;;;11.60;99.90;;;;;;4964064;28;20094;-80
2021/12/12 08:19:07;;;;;;;18.98;2.30;;;11.60;99.90;;;;;;4964790;28;20510;-79
2021/12/12 08:21:36;;;;;;;9.07;1.83;;;11.60;99.90;;;;;;4962048;28;20125;-79
2021/12/12 08:24:06;;;;;;;11.25;1.80;;;11.60;99.90;;;;;;4964389;28;20554;-80
2021/12/12 08:26:35;;;;;;;14.50;2.50;;;11.60;99.90;;;;;;4957978;28;20054;-80
2021/12/12 08:29:05;;;;;;;18.70;2.42;;;11.60;99.90;;;;;;4961630;28;20047;-80
2021/12/12 08:31:34;;;;;;;12.48;2.22;;;11.60;99.90;;;;;;4965146;28;20122;-80
2021/12/12 08:34:04;;;;;;;14.73;2.28;;;11.60;99.90;;;;;;4964395;28;20054;-80
2021/12/12 08:36:34;;;;;;;14.70;2.45;;;11.70;99.90;;;;;;4963293;28;20043;-80
2021/12/12 08:39:04;;;;;;;9.48;1.90;;;11.70;99.90;;;;;;4961959;28;20137;-80
2021/12/12 08:41:32;;;;;;;14.25;1.88;;;11.70;99.90;;;;;;4963671;28;20081;-80
2021/12/12 08:43:59;;;;;;;9.45;2.15;;;11.70;99.90;;;;;;4964533;28;20102;-80
2021/12/12 08:46:26;;;;;;;8.80;2.38;;;11.70;99.90;;;;;;4964124;28;20133;-81
2021/12/12 08:48:54;;;;;;;11.95;3.22;;;11.70;99.90;;;;;;4964252;28;20058;-81
2021/12/12 08:51:31;;;;;;;16.63;3.40;;;11.70;99.90;;;;;;4963594;28;22018;-80
2021/12/12 08:54:01;;;;;;;12.68;2.85;;;11.70;99.90;;;;;;4963396;28;20051;-80
2021/12/12 08:56:45;;;;;;;10.70;2.38;;;11.70;99.90;;;;;;4963474;28;20106;-81
2021/12/12 08:59:16;;;;;;;18.00;3.05;;;11.70;99.90;;;;;;4963557;28;20066;-80
2021/12/12 09:01:45;;;;;;;11.90;2.15;;;11.70;99.90;;;;;;4964630;28;20124;-80
2021/12/12 09:04:13;;;;;;;;;;;11.70;99.90;;;;;;4963748;28;20121;-80
2021/12/12 09:06:59;;;;;;;11.82;2.10;;;11.70;99.90;;;;;;4960587;28;19926;-81
2021/12/12 09:09:38;;;;;;;14.85;2.38;;;11.70;99.90;;;;;;4962328;28;20141;-80
2021/12/12 09:12:28;;;;;;;19.88;2.45;;;11.70;99.90;;;;;;4955755;28;20050;-80
2021/12/12 09:15:11;;;;;;;12.75;2.20;;;11.70;99.90;;;;;;4964192;28;20126;-79
2021/12/12 09:17:48;;;;;;;15.10;2.30;;;11.70;99.90;;;;;;4963907;28;20141;-80
2021/12/12 09:20:25;;;;;;;14.90;2.58;;;11.80;99.90;;;;;;4963590;28;20554;-80
2021/12/12 09:23:01;;;;;;;16.33;2.25;;;11.80;99.90;;;;;;4965239;28;20094;-80
2021/12/12 09:25:51;;;;;;;11.18;2.22;;;11.80;99.90;;;;;;4963499;28;20051;-80
2021/12/12 09:28:31;;;;;;;13.77;2.22;;;11.80;99.90;;;;;;4960968;28;20519;-80
2021/12/12 09:31:07;;;;;;;14.23;2.35;;;11.90;99.90;;;;;;4963687;28;20047;-80
2021/12/12 09:33:52;;;;;;;13.23;2.03;;;11.90;99.90;;;;;;4963912;28;20117;-80
2021/12/12 09:36:29;;;;;;;17.92;2.53;;;11.90;99.90;;;;;;4964278;28;20043;-80
2021/12/12 09:39:05;;;;;;;14.88;2.22;;;11.90;99.90;;;;;;4958534;28;20144;-80
2021/12/12 09:41:59;;;;;;;14.45;2.25;;;11.90;99.90;;;;;;4963322;28;20105;-80
2021/12/12 09:44:58;;;;;;;8.82;2.20;;;12.00;99.90;;;;;;4962249;28;20054;-80
2021/12/12 09:54:03;;;;;;;11.50;2.20;;;12.00;99.90;;;;;;4966408;28;20050;-80
2021/12/12 09:57:02;;;;;;;9.30;1.70;;;12.00;99.90;;;;;;4967329;28;20501;-80
2021/12/12 09:59:58;;;;;;;12.98;1.58;;;12.10;99.90;;;;;;4966738;28;20569;-78
2021/12/12 10:02:42;;;;;;;13.25;1.80;;;12.10;99.90;;;;;;4966368;28;20126;-80
2021/12/12 10:05:30;;;;;;;9.00;1.88;;;12.10;99.90;;;;;;4965113;28;20150;-80
2021/12/12 10:08:21;;;;;;;11.20;1.63;;;12.10;99.90;;;;;;4964494;28;20594;-79
2021/12/12 10:11:00;;;;;;;5.18;1.35;;;12.10;99.90;;;;;;4966604;28;20071;-79
2021/12/12 10:13:51;;;;;;;9.07;1.60;;;12.20;99.90;;;;;;4966769;28;20046;-80
2021/12/12 10:16:35;;;;;;;11.85;1.83;;;12.20;99.90;;;;;;4966184;28;20540;-80
2021/12/12 10:19:25;;;;;;;6.72;1.20;;;12.20;99.90;;;;;;4966835;28;20323;-80
2021/12/12 10:22:35;;;;;;;9.77;1.05;;;12.20;99.90;;;;;;4965633;28;20108;-79
2021/12/12 10:25:14;;;;;;;9.52;1.33;;;12.30;99.90;;;;;;4966256;28;20051;-79
2021/12/12 10:28:10;;;;;;;7.85;1.10;;;12.30;99.90;;;;;;4966552;28;20500;-80
2021/12/12 10:30:45;;;;;;;8.55;1.02;;;12.30;99.90;;;;;;4966023;28;20090;-79
2021/12/12 10:33:23;;;;;;;6.07;1.05;;;12.30;99.90;;;;;;4965737;28;20499;-79
2021/12/12 10:35:58;;;;;;;8.18;1.48;;;12.30;99.90;;;;;;4966376;28;20129;-78
2021/12/12 10:38:36;;;;;;;8.77;1.58;;;12.40;99.90;;;;;;4965172;28;20054;-78
2021/12/12 10:41:34;;;;;;;9.60;1.40;;;12.40;99.90;;;;;;4964425;28;20510;-79
2021/12/12 10:44:21;;;;;;;5.60;1.73;;;12.40;99.90;;;;;;4900084;29;20056;-79
2021/12/12 10:47:16;;;;;;;10.45;1.42;;;12.40;99.90;;;;;;4895190;29;20499;-80
2021/12/12 10:50:00;;;;;;;7.35;1.30;;;12.50;99.90;;;;;;4906477;29;20156;-80
2021/12/12 10:52:30;;;;;;;13.20;1.90;;;12.40;99.90;;;;;;4891121;29;20520;-77
2021/12/12 10:55:06;;;;;;;9.63;1.50;;;12.50;99.90;;;;;;4896444;29;20056;-78
2021/12/12 10:57:36;;;;;;;9.95;1.48;;;12.50;99.90;;;;;;4900366;29;20056;-79
2021/12/12 11:00:15;;;;;;;12.35;1.83;;;12.50;99.90;;;;;;4905752;29;20053;-78
2021/12/12 11:03:01;;;;;;;13.15;1.88;;;12.60;99.90;;;;;;4904780;29;20458;-78
2021/12/12 11:05:58;;;;;;;7.53;1.25;;;12.60;99.90;;;;;;4900565;29;20048;-78
2021/12/12 11:08:35;;;;;;;11.07;1.50;;;12.60;99.90;;;;;;4899286;29;20599;-77
2021/12/12 11:11:19;;;;;;;13.50;2.03;;;12.60;99.90;;;;;;4896662;29;20470;-79
2021/12/12 11:14:06;;;;;;;13.10;4.95;;;12.70;99.90;;;;;;4876649;29;20124;-78
2021/12/12 11:16:44;;;;;;;10.45;3.33;;;12.70;99.90;;;;;;4894737;29;20056;-79
2021/12/12 11:19:20;;;;;;;35.47;9.75;;;12.70;99.90;;;;;;4898233;29;20094;-79
2021/12/12 11:21:51;;;;;;;13.13;3.88;;;12.70;99.90;;;;;;4954826;28;20058;-80
2021/12/12 11:24:24;;;;;;;9.13;2.15;;;12.70;99.90;;;;;;4964523;28;20046;-79
2021/12/12 11:27:34;;;;;;;11.82;2.97;;;12.80;99.90;;;;;;4960917;28;20106;-78
2021/12/12 11:30:25;;;;;;;8.70;1.73;;;12.80;99.90;;;;;;4892495;29;20585;-78
2021/12/12 11:32:54;;;;;;;14.35;2.25;;;12.80;99.90;;;;;;4903759;29;20159;-80
2021/12/12 11:35:24;;;;;;;12.38;1.60;;;12.80;99.90;;;;;;4903711;29;20056;-81
2021/12/12 11:37:57;;;;;;;12.00;2.00;;;12.80;99.90;;;;;;4906359;29;20549;-80
2021/12/12 11:40:44;;;;;;;12.20;1.73;;;12.90;99.90;;;;;;4904772;29;20127;-79
2021/12/12 11:43:23;;;;;;;11.95;1.65;;;12.90;99.90;;;;;;4903929;29;20052;-80
2021/12/12 11:45:57;;;;;;;9.85;1.60;;;12.90;99.90;;;;;;4904882;29;20091;-80
2021/12/12 11:48:48;;;;;;;5.30;1.52;;;12.90;99.90;;;;;;4904127;29;20047;-79
2021/12/12 11:51:19;;;;;;;9.88;2.00;;;12.90;99.90;;;;;;4903302;29;20139;-81
2021/12/12 11:53:49;;;;;;;7.28;1.50;;;12.90;99.90;;;;;;4905184;29;20103;-79
2021/12/12 11:56:31;;;;;;;12.82;1.70;;;12.90;99.90;;;;;;4888430;29;20144;-79
2021/12/12 11:59:15;;;;;;;9.98;1.92;;;12.90;99.90;;;;;;4905425;29;20056;-78
2021/12/12 12:01:49;;;;;;;9.77;1.75;;;13.00;99.90;;;;;;4904559;29;20099;-81
2021/12/12 12:04:40;;;;;;;12.65;1.77;;;13.00;99.90;;;;;;4939028;28;20101;-78
2021/12/12 12:07:22;;;;;;;5.65;1.55;;;13.10;99.90;;;;;;4962122;28;20054;-78
2021/12/12 12:10:04;;;;;;;16.92;5.57;;;13.10;99.90;;;;;;4961763;28;20050;-79
2021/12/12 12:13:10;;;;;;;10.57;2.50;;;13.10;99.90;;;;;;4961982;28;20043;-80
2021/12/12 12:15:40;;;;;;;16.95;4.97;;;13.20;99.90;;;;;;4963969;28;20074;-80
2021/12/12 12:18:34;;;;;;;11.85;3.70;;;13.20;99.90;;;;;;4962180;28;20047;-80
2021/12/12 12:21:08;;;;;;;28.75;11.93;;;13.20;99.90;;;;;;4962533;28;20594;-81
2021/12/12 12:26:50;;;;;;;38.33;15.52;;;13.20;99.90;;;;;;4965042;28;20129;-80
2021/12/12 12:29:30;;;;;;;57.92;21.48;;;13.20;99.90;;;;;;4964801;28;20625;-80
2021/12/12 12:32:03;;;;;;;31.88;12.65;;;13.20;99.90;;;;;;4963634;28;20137;-80
2021/12/12 12:34:58;;;;;;;49.83;21.40;;;13.20;99.90;;;;;;4964847;28;20035;-80
2021/12/12 12:38:02;;;;;;;85.07;29.92;;;13.30;99.90;;;;;;4964178;28;20051;-81
2021/12/12 12:40:54;;;;;;;43.42;17.17;;;13.30;99.90;;;;;;4963718;28;20066;-81
2021/12/12 12:43:42;;;;;;;30.90;11.77;;;13.30;99.90;;;;;;4965203;28;20545;-80
2021/12/12 12:46:37;;;;;;;28.48;10.60;;;13.30;99.90;;;;;;4964980;28;20105;-80
2021/12/12 12:49:43;;;;;;;19.02;6.88;;;13.30;99.90;;;;;;4959414;28;20047;-81
2021/12/12 12:52:46;;;;;;;28.92;8.63;;;13.30;99.90;;;;;;4963057;28;20047;-79
2021/12/12 12:55:47;;;;;;;20.95;4.80;;;13.30;99.90;;;;;;4963806;28;20058;-81
2021/12/12 12:58:35;;;;;;;18.45;6.75;;;13.30;99.90;;;;;;4965498;28;20051;-81
2021/12/12 13:01:31;;;;;;;16.33;6.78;;;13.30;99.90;;;;;;4964266;28;20538;-80
2021/12/12 13:04:03;;;;;;;19.50;4.45;;;13.30;99.90;;;;;;4904972;29;20079;-81
2021/12/12 13:06:57;;;;;;;15.65;6.13;;;13.30;99.90;;;;;;4905465;29;20505;-81
2021/12/12 13:09:56;;;;;;;22.35;8.10;;;13.30;99.90;;;;;;4904883;29;20060;-81
2021/12/12 13:12:33;;;;;;;12.30;5.13;;;13.30;99.90;;;;;;4887410;29;20048;-81
2021/12/12 13:15:29;;;;;;;16.10;5.53;;;13.30;99.90;;;;;;4905552;29;20060;-80
2021/12/12 13:18:17;;;;;;;29.63;11.10;;;13.30;99.90;;;;;;4897569;29;20183;-79
2021/12/12 13:21:08;;;;;;;22.05;6.20;;;13.30;99.90;;;;;;4886036;29;20040;-80
2021/12/12 13:23:59;;;;;;;9.88;3.15;;;13.30;99.90;;;;;;4902948;29;20060;-83
2021/12/12 13:26:39;;;;;;;19.70;5.70;;;13.30;99.90;;;;;;4904400;29;20044;-81
2021/12/12 13:29:31;;;;;;;14.55;7.65;;;13.30;99.90;;;;;;4889323;29;20565;-82
2021/12/12 13:32:14;;;;;;;14.15;4.45;;;13.30;99.90;;;;;;4908153;29;20040;-79
2021/12/12 13:35:12;;;;;;;15.27;5.40;;;13.30;99.90;;;;;;4893903;29;20567;-80
2021/12/12 13:38:02;;;;;;;36.90;15.25;;;13.30;99.90;;;;;;4907760;29;20040;-81
2021/12/12 13:40:44;;;;;;;36.50;15.77;;;13.30;99.90;;;;;;4923526;28;20966;-80
2021/12/12 13:43:22;;;;;;;22.20;7.90;;;13.30;99.90;;;;;;4963536;28;20523;-80
2021/12/12 13:46:22;;;;;;;16.13;5.43;;;13.30;99.90;;;;;;4960159;28;20093;-81
2021/12/12 13:49:07;;;;;;;16.27;6.45;;;13.30;99.90;;;;;;4965563;28;20419;-81
2021/12/12 13:52:08;;;;;;;34.55;12.43;;;13.20;99.90;;;;;;4964808;28;20047;-79
2021/12/12 13:54:58;;;;;;;26.17;12.10;;;13.30;99.90;;;;;;4965017;28;20141;-81
2021/12/12 13:57:51;;;;;;;25.35;6.72;;;13.30;99.90;;;;;;4960116;28;20567;-79
2021/12/12 14:00:46;;;;;;;18.38;4.95;;;13.40;99.90;;;;;;4959871;28;20042;-79
2021/12/12 14:03:37;;;;;;;13.23;4.18;;;13.40;99.90;;;;;;4963364;28;20071;-79
2021/12/12 14:06:10;;;;;;;24.38;9.43;;;13.40;99.90;;;;;;4969853;28;20047;-80
2021/12/12 14:08:51;;;;;;;18.70;4.57;;;13.40;99.90;;;;;;4963644;28;20046;-79
2021/12/12 14:11:28;;;;;;;24.20;8.88;;;13.40;99.90;;;;;;4963953;28;20046;-78
2021/12/12 14:14:09;;;;;;;32.65;7.93;;;13.40;99.90;;;;;;4965308;28;20070;-79
2021/12/12 14:16:42;;;;;;;21.45;5.43;;;13.40;99.90;;;;;;4963383;28;20043;-80
2021/12/12 14:19:32;;;;;;;20.55;5.20;;;13.40;99.90;;;;;;4962639;28;20447;-80
2021/12/12 14:22:00;;;;;;;19.33;4.85;;;13.40;99.90;;;;;;4962979;28;20047;-81
2021/12/12 14:24:31;;;;;;;18.60;4.60;;;13.40;99.90;;;;;;4961974;28;20349;-79
2021/12/12 14:27:01;;;;;;;11.75;4.00;;;13.40;99.90;;;;;;4965653;28;20047;-79
2021/12/12 14:29:33;;;;;;;21.08;4.55;;;13.40;99.90;;;;;;4962964;28;20058;-81
2021/12/12 14:32:13;;;;;;;36.47;11.13;;;13.40;99.90;;;;;;4961369;28;21575;-82
2021/12/12 14:34:52;;;;;;;22.48;6.22;;;13.40;99.90;;;;;;4965148;28;20113;-82
2021/12/12 14:37:28;;;;;;;16.38;5.20;;;13.40;99.90;;;;;;4963693;28;20126;-82
2021/12/12 14:40:15;;;;;;;13.90;2.60;;;13.40;99.90;;;;;;4960509;28;20584;-82
2021/12/12 14:43:07;;;;;;;11.35;3.20;;;13.40;99.90;;;;;;4962756;28;20681;-82
2021/12/12 14:46:00;;;;;;;15.05;3.30;;;13.40;99.90;;;;;;4937843;28;20043;-85
2021/12/12 14:48:36;;;;;;;19.08;5.70;;;13.40;99.90;;;;;;4962397;28;20507;-82
2021/12/12 14:51:13;;;;;;;35.15;16.52;;;13.30;99.90;;;;;;4959159;28;20510;-83
2021/12/12 14:53:44;;;;;;;25.65;10.25;;;13.30;99.90;;;;;;4962056;28;20098;-82
2021/12/12 14:56:18;;;;;;;31.05;12.15;;;13.30;99.90;;;;;;4961833;28;20499;-83
2021/12/12 14:58:49;;;;;;;32.47;13.85;;;13.20;99.90;;;;;;4962131;28;20050;-84
2021/12/12 15:01:33;;;;;;;17.55;5.20;;;13.20;99.90;;;;;;4960463;28;20059;-83
2021/12/12 15:04:22;;;;;;;14.45;3.65;;;13.20;99.90;;;;;;4962858;28;20066;-83
2021/12/12 15:07:11;;;;;;;15.45;4.13;;;13.20;99.90;;;;;;4957990;28;20070;-83
2021/12/12 15:10:02;;;;;;;14.15;3.38;;;13.20;99.90;;;;;;4961181;28;20064;-83
2021/12/12 15:12:36;;;;;;;13.82;2.30;;;13.10;99.90;;;;;;4966781;28;20046;-82
2021/12/12 15:15:34;;;;;;;11.30;2.13;;;13.10;99.90;;;;;;4967016;28;20098;-82
2021/12/12 15:18:06;;;;;;;16.00;2.90;;;13.10;99.90;;;;;;4959809;28;20047;-80
2021/12/12 15:20:56;;;;;;;14.32;2.22;;;13.10;99.90;;;;;;4962454;28;20093;-82
2021/12/12 15:23:27;;;;;;;11.80;1.88;;;13.00;99.90;;;;;;4955855;28;20471;-83
2021/12/12 15:26:25;;;;;;;13.32;1.75;;;13.00;99.90;;;;;;4961668;28;20047;-83
2021/12/12 15:28:53;;;;;;;14.98;2.55;;;13.00;99.90;;;;;;4954612;28;20464;-83
2021/12/12 15:31:41;;;;;;;7.93;2.33;;;13.00;99.90;;;;;;4963637;28;20047;-84
2021/12/12 15:34:11;;;;;;;10.73;1.87;;;13.00;99.90;;;;;;4959733;28;20411;-82
2021/12/12 15:36:43;;;;;;;14.65;2.10;;;13.00;99.90;;;;;;4960298;28;20275;-83
2021/12/12 15:39:18;;;;;;;15.13;2.30;;;13.00;99.90;;;;;;4963228;28;20784;-82
2021/12/12 15:41:54;;;;;;;11.70;1.70;;;12.90;99.90;;;;;;4961814;28;20055;-83
2021/12/12 15:44:35;;;;;;;16.23;2.08;;;12.90;99.90;;;;;;4958996;28;20070;-83
2021/12/12 15:47:08;;;;;;;16.98;2.10;;;12.90;99.90;;;;;;4958110;28;20051;-84
2021/12/12 15:49:48;;;;;;;8.95;1.50;;;12.90;99.90;;;;;;4962914;28;20079;-84
2021/12/12 15:52:26;;;;;;;12.00;2.17;;;12.80;99.90;;;;;;4963249;28;20047;-83
2021/12/12 15:54:56;;;;;;;9.10;1.40;;;12.80;99.90;;;;;;4964392;28;20056;-84
2021/12/12 15:57:31;;;;;;;10.57;2.30;;;12.80;99.90;;;;;;4961817;28;20051;-82
2021/12/12 16:00:12;;;;;;;12.38;1.70;;;12.70;99.90;;;;;;4962900;28;20051;-82
2021/12/12 16:02:43;;;;;;;12.82;2.00;;;12.70;99.90;;;;;;4959266;28;20586;-82
2021/12/12 16:05:23;;;;;;;13.25;1.90;;;12.70;99.90;;;;;;4963666;28;20094;-84
2021/12/12 16:07:54;;;;;;;10.82;2.10;;;12.70;99.90;;;;;;4958555;28;20515;-82
2021/12/12 16:10:27;;;;;;;10.82;2.22;;;12.70;99.90;;;;;;4963508;28;20055;-83
2021/12/12 16:13:00;;;;;;;11.68;1.92;;;12.70;99.90;;;;;;4959131;28;20110;-83
2021/12/12 16:15:43;;;;;;;16.55;2.20;;;12.70;99.90;;;;;;4960577;28;20042;-83
2021/12/12 16:18:12;;;;;;;8.95;2.00;;;12.70;99.90;;;;;;4959096;28;20043;-83
2021/12/12 16:20:45;;;;;;;15.55;2.35;;;12.70;99.90;;;;;;4961608;28;20615;-84
2021/12/12 16:23:17;;;;;;;13.32;2.45;;;12.60;99.90;;;;;;4965528;28;20479;-84
2021/12/12 16:25:53;;;;;;;11.57;1.98;;;12.60;99.90;;;;;;4959341;28;20621;-82
2021/12/12 16:28:26;;;;;;;11.45;2.50;;;12.60;99.90;;;;;;4964919;28;20102;-82
2021/12/12 16:30:55;;;;;;;11.05;2.72;;;12.60;99.90;;;;;;4965697;28;20150;-83
2021/12/12 16:33:31;;;;;;;16.23;3.15;;;12.60;99.90;;;;;;4958225;28;20192;-81
2021/12/12 16:35:59;;;;;;;13.65;2.95;;;12.60;99.90;;;;;;4961353;28;20050;-83
2021/12/12 16:38:29;;;;;;;11.93;1.80;;;12.60;99.90;;;;;;4960778;28;20042;-84
2021/12/12 16:41:11;;;;;;;16.38;2.53;;;12.60;99.90;;;;;;4960410;28;20503;-83
2021/12/12 16:43:56;;;;;;;14.60;4.68;;;12.50;99.90;;;;;;4954319;28;20484;-85
2021/12/12 16:46:58;;;;;;;;;;;;;;;;;;;;;
2021/12/12 16:49:35;;;;;;;18.88;2.60;;;12.50;99.90;;;;;;4938968;28;20047;-88
2021/12/12 16:52:26;;;;;;;20.38;3.30;;;12.50;99.90;;;;;;4945469;28;20050;-90
2021/12/12 16:54:58;;;;;;;18.30;5.40;;;12.50;99.90;;;;;;4950445;28;20538;-88
2021/12/12 16:57:45;;;;;;;18.67;3.70;;;12.50;99.90;;;;;;4960369;28;20061;-87
2021/12/12 17:00:51;;;;;;;25.27;3.40;;;12.40;99.90;;;;;;4951277;28;20094;-86
2021/12/12 17:03:42;;;;;;;;;;;;;;;;;;;;;
2021/12/12 17:06:29;;;;;;;14.68;2.50;;;12.40;99.90;;;;;;4967000;28;20055;-87
2021/12/12 17:09:24;;;;;;;11.43;2.50;;;12.40;99.90;;;;;;4874084;28;20065;-89
2021/12/12 17:12:20;;;;;;;12.57;2.15;;;12.40;99.90;;;;;;4961761;28;20050;-80
2021/12/12 17:15:05;;;;;;;17.60;7.60;;;12.40;99.90;;;;;;4962253;28;20054;-88
2021/12/12 17:18:00;;;;;;;14.35;3.72;;;12.30;99.90;;;;;;4942448;28;20048;-88
2021/12/12 17:20:50;;;;;;;17.88;2.00;;;12.30;99.90;;;;;;4950082;28;20043;-89
2021/12/12 17:23:31;;;;;;;14.02;2.80;;;12.30;99.90;;;;;;4957747;28;20054;-88
2021/12/12 17:26:06;;;;;;;15.68;2.70;;;12.30;99.90;;;;;;4955117;28;20610;-85
2021/12/12 17:28:39;;;;;;;14.50;1.90;;;12.30;99.90;;;;;;4954521;28;20109;-88
2021/12/12 17:31:13;;;;;;;10.25;1.83;;;12.30;99.90;;;;;;4936976;28;20440;-88
2021/12/12 17:33:51;;;;;;;10.95;1.75;;;12.30;99.90;;;;;;4960141;28;20094;-88
2021/12/12 17:36:46;;;;;;;17.30;2.30;;;12.30;99.90;;;;;;4943290;28;20101;-85
2021/12/12 17:39:26;;;;;;;10.40;1.80;;;12.20;99.90;;;;;;4942339;28;20153;-86
2021/12/12 17:42:36;;;;;;;12.10;2.00;;;12.20;99.90;;;;;;4910816;29;20134;-87
2021/12/12 17:45:47;;;;;;;17.85;2.35;;;12.20;99.90;;;;;;4895183;29;20136;-87
2021/12/12 17:49:00;;;;;;;10.18;2.13;;;12.20;99.90;;;;;;4845698;29;20049;-86
2021/12/12 17:52:05;;;;;;;11.13;2.60;;;12.30;99.90;;;;;;4841923;29;20053;-86
2021/12/12 17:55:10;;;;;;;14.25;3.17;;;12.20;99.90;;;;;;4865683;29;20148;-84
2021/12/12 17:57:46;;;;;;;18.85;4.78;;;12.20;99.90;;;;;;4859060;29;20139;-85
2021/12/12 18:00:20;;;;;;;16.58;2.50;;;12.20;99.90;;;;;;4866117;29;20076;-86
2021/12/12 18:02:50;;;;;;;11.35;2.97;;;12.20;99.90;;;;;;4883676;29;20732;-86
2021/12/12 18:05:23;;;;;;;10.27;2.30;;;12.10;99.90;;;;;;4883878;29;20052;-87
2021/12/12 18:08:05;;;;;;;10.18;2.20;;;12.10;99.90;;;;;;4883852;29;20057;-86
2021/12/12 18:10:59;;;;;;;6.40;0.93;;;12.10;99.90;;;;;;4864381;29;20093;-90
2021/12/12 18:13:36;;;;;;;4.40;1.02;;;12.00;99.90;;;;;;4871361;29;20053;-86
2021/12/12 18:16:13;;;;;;;3.90;1.15;;;12.00;99.90;;;;;;4882245;29;20057;-90
2021/12/12 18:19:01;;;;;;;5.65;1.15;;;11.90;99.90;;;;;;4889976;29;20068;-88
2021/12/12 18:21:38;;;;;;;4.40;1.33;;;11.80;99.90;;;;;;4887708;29;20063;-88
2021/12/12 18:24:16;;;;;;;3.50;1.08;;;11.80;99.90;;;;;;4896023;28;20661;-88
2021/12/12 18:26:53;;;;;;;3.65;1.92;;;11.80;99.90;;;;;;4964142;28;20047;-88
2021/12/12 18:29:42;;;;;;;6.55;1.83;;;11.70;99.90;;;;;;4958343;28;20050;-86
2021/12/12 18:32:23;;;;;;;;;;;11.70;99.90;;;;;;4956129;28;20047;-87
2021/12/12 18:34:50;;;;;;;11.70;2.10;;;11.70;99.90;;;;;;4959923;28;19929;-88
2021/12/12 18:37:28;;;;;;;6.70;2.00;;;11.70;99.90;;;;;;4963363;28;20050;-86
2021/12/12 18:39:58;;;;;;;10.73;2.20;;;11.70;99.90;;;;;;4961495;28;20050;-89
2021/12/12 18:42:32;;;;;;;9.57;2.38;;;11.60;99.90;;;;;;4965836;28;20062;-90
2021/12/12 18:45:04;;;;;;;10.15;2.25;;;11.60;99.90;;;;;;4967336;28;20051;-91
2021/12/12 18:47:35;;;;;;;8.73;2.30;;;11.60;99.90;;;;;;4967151;28;20471;-90
2021/12/12 18:50:17;;;;;;;10.45;3.60;;;11.60;99.90;;;;;;4962145;28;20412;-89
2021/12/12 18:52:49;;;;;;;11.55;5.00;;;11.60;99.90;;;;;;4964901;28;20042;-90
2021/12/12 18:55:24;;;;;;;10.55;4.80;;;11.60;99.90;;;;;;4962655;28;20057;-92
2021/12/12 18:57:59;;;;;;;14.57;9.20;;;11.60;99.90;;;;;;4966151;28;20063;-89
2021/12/12 19:00:40;;;;;;;14.52;7.72;;;11.60;99.90;;;;;;4960192;28;20059;-89
2021/12/12 19:03:21;;;;;;;17.88;10.07;;;11.50;99.90;;;;;;4962663;28;20062;-89
2021/12/12 19:05:51;;;;;;;13.93;9.20;;;11.50;99.90;;;;;;4964503;28;20050;-88
2021/12/12 19:08:27;;;;;;;13.05;9.05;;;11.50;99.90;;;;;;4967609;28;20097;-87
2021/12/12 19:11:02;;;;;;;12.68;8.20;;;11.50;99.90;;;;;;4963145;28;20543;-91
2021/12/12 19:13:32;;;;;;;6.90;4.03;;;11.50;99.90;;;;;;4959053;28;20043;-90
2021/12/12 19:16:08;;;;;;;5.43;3.90;;;11.40;99.90;;;;;;4959882;28;20053;-89
2021/12/12 19:18:39;;;;;;;6.57;2.80;;;11.40;99.90;;;;;;4961697;28;20071;-90
2021/12/12 19:21:13;;;;;;;4.35;2.65;;;11.40;99.90;;;;;;4958315;28;20105;-90
2021/12/12 19:23:45;;;;;;;6.78;2.00;;;11.40;99.90;;;;;;4967599;28;20054;-90
2021/12/12 19:26:19;;;;;;;4.20;1.45;;;11.40;99.90;;;;;;4969395;28;20061;-87
2021/12/12 19:28:54;;;;;;;3.97;1.83;;;11.40;99.90;;;;;;4960711;28;20050;-82
2021/12/12 19:31:23;;;;;;;5.95;4.40;;;11.40;99.90;;;;;;4964736;28;20133;-83
2021/12/12 19:34:07;;;;;;;5.60;2.67;;;11.40;99.90;;;;;;4967264;28;20046;-83
2021/12/12 19:36:40;;;;;;;4.85;1.58;;;11.50;99.90;;;;;;4965791;28;20046;-84
2021/12/12 19:39:36;;;;;;;6.80;1.80;;;11.50;99.90;;;;;;4966019;28;20050;-84
2021/12/12 19:42:10;;;;;;;6.10;1.92;;;11.50;99.90;;;;;;4963051;28;20083;-84
2021/12/12 19:44:41;;;;;;;4.45;1.60;;;11.50;99.90;;;;;;4969815;28;20055;-92
2021/12/12 19:47:17;;;;;;;3.80;1.40;;;11.50;99.90;;;;;;4966051;28;20117;-94
2021/12/12 19:49:47;;;;;;;3.88;2.20;;;11.50;99.90;;;;;;4964168;28;20047;-93
2021/12/12 19:52:33;;;;;;;5.45;1.88;;;11.50;99.90;;;;;;4961130;28;20051;-91
2021/12/12 19:55:24;;;;;;;4.20;2.13;;;11.50;99.90;;;;;;4962242;28;20054;-89
2021/12/12 19:57:57;;;;;;;3.85;1.80;;;11.50;99.90;;;;;;4956125;28;20476;-88
2021/12/12 20:00:30;;;;;;;5.50;1.70;;;11.50;99.90;;;;;;4962851;28;20054;-90
2021/12/12 20:03:11;;;;;;;3.60;1.70;;;11.50;99.90;;;;;;4960296;28;20134;-91
2021/12/12 20:05:57;;;;;;;5.32;1.85;;;11.50;99.90;;;;;;4957429;28;20093;-88
2021/12/12 20:08:33;;;;;;;4.70;2.30;;;11.50;99.90;;;;;;4962980;28;20058;-93
2021/12/12 20:11:10;;;;;;;4.10;2.75;;;11.50;99.90;;;;;;4953692;28;20042;-89
2021/12/12 20:13:49;;;;;;;5.40;3.42;;;11.50;99.90;;;;;;4962672;28;20046;-90
2021/12/12 20:16:43;;;;;;;14.73;6.95;;;11.50;99.90;;;;;;4968323;28;20049;-91
2021/12/12 20:19:21;;;;;;;29.08;8.70;;;11.60;99.90;;;;;;4964752;28;20907;-89
2021/12/12 20:21:58;;;;;;;22.70;7.57;;;11.60;99.90;;;;;;4957462;28;20138;-89
2021/12/12 20:24:30;;;;;;;25.05;7.68;;;11.60;99.90;;;;;;4977174;28;20058;-90
2021/12/12 20:27:05;;;;;;;13.27;4.95;;;11.60;99.90;;;;;;4964187;28;20042;-92
2021/12/12 20:29:37;;;;;;;27.58;8.70;;;11.50;99.90;;;;;;4959022;28;20086;-88
2021/12/12 20:32:15;;;;;;;19.95;7.70;;;11.60;99.90;;;;;;4963772;28;20129;-88
2021/12/12 20:34:52;;;;;;;15.13;6.97;;;11.60;99.90;;;;;;4963559;28;20600;-88
2021/12/12 20:37:27;;;;;;;14.93;5.80;;;11.60;99.90;;;;;;4961975;28;20051;-86
2021/12/12 20:40:04;;;;;;;17.65;7.47;;;11.60;99.90;;;;;;4956628;28;20054;-86
2021/12/12 20:42:35;;;;;;;9.75;4.20;;;11.60;99.90;;;;;;4951754;28;20071;-86
2021/12/12 20:45:14;;;;;;;12.38;3.42;;;11.60;99.90;;;;;;4956796;28;20051;-89
2021/12/12 20:47:47;;;;;;;8.55;3.15;;;11.60;99.90;;;;;;4938852;28;20047;-88
2021/12/12 20:50:26;;;;;;;10.27;4.03;;;11.60;99.90;;;;;;4966651;28;20109;-88
2021/12/12 20:53:08;;;;;;;10.02;2.90;;;11.60;99.90;;;;;;4969334;28;20176;-93
2021/12/12 20:55:47;;;;;;;8.50;3.08;;;11.60;99.90;;;;;;4983752;28;20475;-89